Time;durP1;ratioP1;P1;durP2;ratioP2;P2;SDS_P1;SDS_P2;PMS_P1;PMS_P2;Temp;Humidity;BMP_temperature;BMP_pressure;BME280_temperature;BME280_humidity;BME280_pressure;Samples;Min_cycle;Max_cycle;Signal;HPM_P1;HPM_P2
2022/07/02 00:02:09;;;;;;;16.07;6.30;;;;;;;24.28;45.19;100563.21;123532;1099;104265;-78
2022/07/02 00:04:47;;;;;;;18.27;6.40;;;;;;;24.15;45.34;100567.94;123494;1099;104245;-79
2022/07/02 00:07:19;;;;;;;15.23;6.23;;;;;;;24.05;45.35;100568.11;123587;1099;104239;-78
2022/07/02 00:09:50;;;;;;;12.37;6.13;;;;;;;23.94;45.85;100572.80;123533;1099;104293;-79
2022/07/02 00:12:22;;;;;;;13.63;6.30;;;;;;;23.83;45.74;100567.60;123519;1099;105386;-79
2022/07/02 00:14:56;;;;;;;15.17;6.03;;;;;;;23.75;45.83;100571.31;123505;1098;104293;-79
2022/07/02 00:17:27;;;;;;;16.23;6.77;;;;;;;23.68;45.86;100579.48;123492;1098;104389;-78
2022/07/02 00:20:02;;;;;;;13.77;6.10;;;;;;;23.60;46.33;100572.48;123523;1099;104242;-78
2022/07/02 00:22:35;;;;;;;12.37;5.93;;;;;;;23.50;46.33;100579.80;123500;1098;104248;-79
2022/07/02 00:25:08;;;;;;;16.77;6.17;;;;;;;23.42;46.46;100574.56;123540;1097;104262;-78
2022/07/02 00:27:41;;;;;;;17.65;7.25;;;;;;;23.36;46.65;100576.44;123520;1099;104261;-79
2022/07/02 00:30:15;;;;;;;10.60;6.20;;;;;;;23.30;47.72;100578.31;123248;1099;104530;-79
2022/07/02 00:32:49;;;;;;;16.20;6.30;;;;;;;23.27;47.27;100573.00;123230;1099;104415;-79
2022/07/02 00:35:20;;;;;;;;;;;;;;;23.23;47.56;100576.63;123239;1099;104421;-79
2022/07/02 00:37:52;;;;;;;10.40;6.00;;;;;;;23.16;47.83;100580.32;123304;1102;104252;-79
2022/07/02 00:40:24;;;;;;;12.63;6.23;;;;;;;23.09;47.99;100576.86;123216;1102;104427;-79
2022/07/02 00:42:56;;;;;;;15.23;6.23;;;;;;;23.05;48.53;100583.12;123230;1102;104351;-79
2022/07/02 00:45:28;;;;;;;11.73;5.73;;;;;;;23.07;48.69;100585.77;123191;1102;104373;-79
2022/07/02 00:48:00;;;;;;;17.10;6.87;;;;;;;23.05;48.50;100584.92;123266;1099;104389;-79
2022/07/02 00:50:31;;;;;;;16.03;6.33;;;;;;;23.02;49.63;100579.61;123274;1099;104450;-78
2022/07/02 00:53:03;;;;;;;15.03;6.67;;;;;;;22.94;49.36;100588.63;123258;1099;104416;-78
2022/07/02 00:55:35;;;;;;;15.30;6.87;;;;;;;22.81;49.62;100592.36;123205;1102;104226;-79
2022/07/02 00:58:07;;;;;;;12.90;6.40;;;;;;;22.77;50.13;100590.65;123255;1098;104389;-79
2022/07/02 01:00:38;;;;;;;16.43;6.53;;;;;;;22.67;50.01;100586.31;123255;1099;104395;-78
2022/07/02 01:03:12;;;;;;;13.00;6.30;;;;;;;22.57;50.64;100589.10;123486;1099;104291;-78
2022/07/02 01:05:44;;;;;;;13.67;6.33;;;;;;;22.52;50.26;100593.63;123507;1099;104317;-78
2022/07/02 01:11:08;;;;;;;11.40;6.35;;;;;;;22.33;50.78;100597.41;123545;1099;104274;-78
2022/07/02 01:13:41;;;;;;;14.65;6.55;;;;;;;22.27;51.33;100601.02;123511;1099;104261;-79
2022/07/02 01:16:13;;;;;;;15.60;6.50;;;;;;;22.22;51.83;100602.83;123655;1099;104639;-78
2022/07/02 01:18:44;;;;;;;16.77;6.80;;;;;;;22.19;52.09;100606.45;123540;1099;104338;-79
2022/07/02 01:21:15;;;;;;;15.97;6.30;;;;;;;22.13;51.68;100606.51;123533;1099;104219;-79
2022/07/02 01:23:47;;;;;;;16.10;6.60;;;;;;;22.10;52.15;100606.53;123463;1099;104355;-78
2022/07/02 01:26:18;;;;;;;17.80;7.00;;;;;;;22.09;52.34;100607.42;123476;1099;104787;-78
2022/07/02 01:28:50;;;;;;;13.20;6.63;;;;;;;22.08;52.47;100609.23;123552;1099;104341;-78
2022/07/02 01:31:23;;;;;;;12.50;6.53;;;;;;;22.08;52.96;100613.70;123490;1099;104268;-79
2022/07/02 01:33:54;;;;;;;13.43;6.28;;;;;;;22.02;53.06;100614.62;123493;1099;104280;-79
2022/07/02 01:36:26;;;;;;;16.23;6.80;;;;;;;22.02;52.79;100619.09;123515;1099;104238;-78
2022/07/02 01:38:57;;;;;;;20.30;7.10;;;;;;;22.04;52.44;100620.83;123484;1099;104281;-79
2022/07/02 01:41:41;;;;;;;14.00;6.43;;;;;;;22.05;52.40;100624.41;123506;1099;104396;-79
2022/07/02 01:44:13;;;;;;;16.15;6.45;;;;;;;22.00;53.22;100621.78;123501;1099;104265;-79
2022/07/02 01:46:46;;;;;;;13.90;6.40;;;;;;;21.98;52.97;100617.34;123494;1098;104188;-78
2022/07/02 01:49:18;;;;;;;14.07;6.47;;;;;;;21.99;53.37;100628.02;123613;1099;104640;-79
2022/07/02 01:51:49;;;;;;;14.07;6.23;;;;;;;21.99;53.45;100629.81;123496;1099;104257;-77
2022/07/02 01:54:20;;;;;;;16.47;6.33;;;;;;;21.98;53.04;100630.70;123498;1098;104290;-79
2022/07/02 01:56:52;;;;;;;13.50;6.63;;;;;;;21.98;52.98;100628.03;123545;1099;104210;-79
2022/07/02 01:59:24;;;;;;;13.93;6.67;;;;;;;21.93;53.25;100627.20;123492;1099;104386;-79
2022/07/02 02:01:56;;;;;;;15.97;6.87;;;;;;;21.83;53.42;100624.61;123581;1098;104261;-78
2022/07/02 02:04:27;;;;;;;14.67;6.67;;;;;;;21.79;54.22;100622.84;123532;1099;104344;-78
2022/07/02 02:07:00;;;;;;;13.30;6.17;;;;;;;21.77;53.59;100621.08;123516;1099;104309;-79
2022/07/02 02:09:32;;;;;;;12.20;6.90;;;;;;;21.76;53.76;100617.53;123573;1099;104517;-80
2022/07/02 02:12:03;;;;;;;12.30;6.50;;;;;;;21.84;54.44;100621.02;123638;1098;104399;-79
2022/07/02 02:14:36;;;;;;;13.57;6.47;;;;;;;21.94;53.91;100618.27;123702;1098;104290;-79
2022/07/02 02:17:08;;;;;;;14.15;6.65;;;;;;;21.96;53.79;100622.70;123670;1098;104277;-78
2022/07/02 02:19:39;;;;;;;13.33;6.73;;;;;;;21.94;54.09;100620.93;123679;1099;104262;-78
2022/07/02 02:22:11;;;;;;;15.13;6.70;;;;;;;21.98;53.72;100614.67;123670;1097;104159;-79
2022/07/02 02:24:42;;;;;;;12.03;5.77;;;;;;;22.03;54.26;100623.52;123591;1098;104422;-79
2022/07/02 02:27:14;;;;;;;13.10;6.50;;;;;;;22.01;54.45;100628.00;123644;1099;104264;-79
2022/07/02 02:29:45;;;;;;;12.07;6.50;;;;;;;21.99;54.64;100630.69;123618;1097;104638;-79
2022/07/02 02:32:18;;;;;;;16.60;7.00;;;;;;;21.95;54.27;100628.06;123540;1099;104310;-79
2022/07/02 02:34:49;;;;;;;12.03;6.50;;;;;;;21.90;54.18;100634.31;123548;1099;104268;-79
2022/07/02 02:37:20;;;;;;;15.33;6.77;;;;;;;21.88;54.16;100630.78;123494;1098;104319;-79
2022/07/02 02:39:52;;;;;;;14.53;6.53;;;;;;;21.92;54.99;100634.30;123520;1099;104249;-79
2022/07/02 02:42:23;;;;;;;13.87;6.70;;;;;;;21.99;54.54;100635.16;123549;1098;104258;-79
2022/07/02 02:44:55;;;;;;;13.77;6.37;;;;;;;22.08;54.70;100635.95;123552;1098;104236;-78
2022/07/02 02:47:26;;;;;;;16.80;7.23;;;;;;;22.14;54.92;100623.41;123532;1099;104289;-78
2022/07/02 02:49:57;;;;;;;13.53;6.50;;;;;;;22.18;53.94;100626.05;123604;1099;104447;-78
2022/07/02 02:52:29;;;;;;;13.87;6.13;;;;;;;22.15;54.93;100626.08;123530;1099;104262;-78
2022/07/02 02:55:00;;;;;;;12.53;6.33;;;;;;;22.16;54.49;100626.95;123521;1098;104641;-79
2022/07/02 02:57:32;;;;;;;16.67;6.43;;;;;;;22.07;54.58;100625.27;123590;1097;104344;-79
2022/07/02 03:00:04;;;;;;;13.20;6.70;;;;;;;21.98;55.19;100633.37;123570;1099;104325;-78
2022/07/02 03:02:36;;;;;;;13.40;7.00;;;;;;;21.93;54.84;100636.08;123479;1099;104447;-79
2022/07/02 03:05:08;;;;;;;13.87;6.93;;;;;;;21.89;54.82;100647.69;123592;1099;104210;-78
2022/07/02 03:07:40;;;;;;;19.47;7.30;;;;;;;21.82;54.77;100644.19;123744;1098;104242;-78
2022/07/02 03:10:12;;;;;;;14.30;6.20;;;;;;;21.81;54.98;100647.75;123592;1099;104259;-78
2022/07/02 03:12:43;;;;;;;16.83;6.33;;;;;;;21.84;54.60;100642.38;123614;1099;104258;-79
2022/07/02 03:15:15;;;;;;;16.47;6.40;;;;;;;21.92;55.30;100649.45;123506;1097;104405;-79
2022/07/02 03:17:46;;;;;;;15.70;7.07;;;;;;;22.03;55.45;100658.25;123518;1098;104341;-79
2022/07/02 03:20:18;;;;;;;17.63;6.93;;;;;;;22.12;54.45;100658.17;123641;1097;104293;-79
2022/07/02 03:22:49;;;;;;;13.23;6.80;;;;;;;22.16;54.88;100664.36;123606;1098;104232;-79
2022/07/02 03:25:21;;;;;;;12.63;6.67;;;;;;;22.19;55.38;100662.56;123574;1099;104298;-79
2022/07/02 03:27:52;;;;;;;16.03;7.33;;;;;;;22.21;54.77;100657.20;123484;1099;108330;-79
2022/07/02 03:30:25;;;;;;;20.43;7.03;;;;;;;22.19;55.16;100661.66;123670;1099;104275;-80
2022/07/02 03:32:56;;;;;;;16.10;7.27;;;;;;;22.15;55.00;100658.14;123617;1099;104165;-79
2022/07/02 03:35:28;;;;;;;14.40;6.97;;;;;;;22.18;54.75;100667.92;123603;1099;104301;-79
2022/07/02 03:38:01;;;;;;;16.07;6.83;;;;;;;22.25;55.17;100669.62;123627;1099;104325;-80
2022/07/02 03:40:36;;;;;;;18.07;7.13;;;;;;;22.32;55.61;100670.50;123662;1099;104399;-81
2022/07/02 03:43:10;;;;;;;11.47;6.37;;;;;;;22.35;55.44;100670.47;123990;1097;104268;-79
2022/07/02 03:45:42;;;;;;;15.47;7.03;;;;;;;22.41;54.74;100665.94;123995;1099;104338;-80
2022/07/02 03:48:13;;;;;;;13.10;7.07;;;;;;;22.48;55.19;100671.22;123499;1098;104935;-79
2022/07/02 03:50:45;;;;;;;19.13;8.00;;;;;;;22.41;55.24;100670.41;123559;1099;104298;-79
2022/07/02 03:53:17;;;;;;;20.90;7.97;;;;;;;22.36;55.33;100666.88;123455;1099;104329;-78
2022/07/02 03:55:48;;;;;;;18.67;7.10;;;;;;;22.35;54.98;100673.14;123514;1099;104290;-79
2022/07/02 03:58:21;;;;;;;15.55;7.30;;;;;;;22.43;54.73;100669.47;123582;1099;104261;-79
2022/07/02 04:00:52;;;;;;;12.27;6.97;;;;;;;22.49;54.96;100675.67;123570;1098;104361;-79
2022/07/02 04:03:24;;;;;;;18.77;7.27;;;;;;;22.56;54.80;100670.25;123520;1099;104242;-79
2022/07/02 04:05:55;;;;;;;13.77;7.20;;;;;;;22.64;55.32;100670.16;123583;1098;104236;-78
2022/07/02 04:08:27;;;;;;;15.63;7.03;;;;;;;22.71;54.95;100668.30;123703;1099;104258;-79
2022/07/02 04:10:58;;;;;;;19.17;7.47;;;;;;;22.77;54.70;100673.57;123656;1099;104232;-78
2022/07/02 04:13:30;;;;;;;17.73;7.93;;;;;;;22.83;55.20;100678.85;123690;1099;104169;-79
2022/07/02 04:16:02;;;;;;;17.80;7.00;;;;;;;22.82;54.60;100668.17;123683;1098;104220;-79
2022/07/02 04:18:33;;;;;;;15.10;6.90;;;;;;;22.83;54.68;100683.29;123722;1097;104792;-79
2022/07/02 04:21:07;;;;;;;15.73;7.00;;;;;;;22.85;54.57;100673.48;123713;1096;104235;-79
2022/07/02 04:23:38;;;;;;;15.77;7.13;;;;;;;22.93;54.01;100683.16;123589;1096;104674;-79
2022/07/02 04:26:14;;;;;;;16.73;7.07;;;;;;;23.02;54.22;100681.30;123562;1096;104329;-78
2022/07/02 04:28:47;;;;;;;13.53;6.60;;;;;;;23.06;54.40;100683.92;123833;1099;104235;-78
2022/07/02 04:31:19;;;;;;;15.27;7.00;;;;;;;23.12;53.82;100683.88;123478;1099;104316;-79
2022/07/02 04:33:50;;;;;;;14.33;7.00;;;;;;;23.15;54.20;100699.89;123500;1099;104348;-79
2022/07/02 04:36:22;;;;;;;14.30;6.63;;;;;;;23.18;53.54;100698.95;123549;1099;104386;-79
2022/07/02 04:38:53;;;;;;;13.93;6.67;;;;;;;23.22;53.75;100692.66;123518;1099;104374;-79
2022/07/02 04:41:25;;;;;;;13.20;6.80;;;;;;;23.28;53.65;100700.61;123556;1098;104342;-79
2022/07/02 04:43:56;;;;;;;15.80;6.90;;;;;;;23.35;53.51;100695.16;123480;1099;104405;-79
2022/07/02 04:46:29;;;;;;;15.73;7.50;;;;;;;23.43;53.57;100698.61;123576;1099;104374;-80
2022/07/02 04:49:01;;;;;;;14.15;6.90;;;;;;;23.50;53.76;100697.63;123517;1098;104344;-79
2022/07/02 04:51:35;;;;;;;15.63;7.47;;;;;;;23.55;53.53;100697.56;123673;1099;104454;-78
2022/07/02 04:54:08;;;;;;;16.77;6.83;;;;;;;23.57;53.75;100703.77;123377;1099;104339;-79
2022/07/02 04:56:40;;;;;;;14.80;6.73;;;;;;;23.58;53.66;100702.88;123562;1099;104431;-79
2022/07/02 04:59:11;;;;;;;14.87;7.20;;;;;;;23.60;53.61;100709.08;123613;1099;104405;-78
2022/07/02 05:01:43;;;;;;;14.60;6.50;;;;;;;23.63;53.31;100717.95;123591;1099;104919;-78
2022/07/02 05:04:14;;;;;;;12.40;6.30;;;;;;;23.66;53.51;100711.67;123602;1099;104364;-78
2022/07/02 05:06:46;;;;;;;13.63;7.00;;;;;;;23.71;53.33;100717.83;123497;1099;104396;-79
2022/07/02 05:09:17;;;;;;;11.00;5.85;;;;;;;23.76;52.95;100709.73;123458;1099;104249;-78
2022/07/02 05:11:49;;;;;;;11.53;6.47;;;;;;;23.80;52.88;100708.78;123540;1099;104339;-78
2022/07/02 05:14:20;;;;;;;14.80;6.57;;;;;;;23.86;52.63;100706.91;123563;1099;104387;-78
2022/07/02 05:16:52;;;;;;;15.15;6.90;;;;;;;23.95;53.02;100711.25;123518;1096;104383;-78
2022/07/02 05:19:23;;;;;;;15.00;6.73;;;;;;;24.03;52.77;100714.69;123632;1096;104273;-79
2022/07/02 05:21:56;;;;;;;11.77;6.53;;;;;;;24.10;52.66;100714.58;123569;1098;104339;-78
2022/07/02 05:24:30;;;;;;;16.42;6.28;;;;;;;24.17;52.43;100711.77;123590;1099;104305;-79
2022/07/02 05:27:04;;;;;;;17.03;6.47;;;;;;;24.26;52.41;100709.83;123923;1099;104419;-79
2022/07/02 05:29:35;;;;;;;10.87;5.37;;;;;;;24.34;52.29;100707.89;123924;1099;104321;-78
2022/07/02 05:32:09;;;;;;;12.23;6.17;;;;;;;24.39;52.07;100714.95;123766;1097;104386;-78
2022/07/02 05:34:40;;;;;;;13.15;6.40;;;;;;;24.46;51.69;100714.84;123625;1099;104291;-78
2022/07/02 05:37:11;;;;;;;11.37;5.70;;;;;;;24.54;51.68;100704.84;123928;1099;104254;-80
2022/07/02 05:39:43;;;;;;;12.23;6.23;;;;;;;24.59;51.56;100705.70;123559;1099;104262;-78
2022/07/02 05:42:14;;;;;;;14.37;6.33;;;;;;;24.64;51.01;100708.30;123624;1099;104252;-78
2022/07/02 05:44:46;;;;;;;13.73;6.33;;;;;;;24.71;51.02;100702.78;123555;1099;104392;-78
2022/07/02 05:47:17;;;;;;;9.87;6.10;;;;;;;24.75;50.97;100701.78;123617;1099;104392;-79
2022/07/02 05:49:49;;;;;;;14.30;6.70;;;;;;;24.82;51.18;100704.34;123556;1099;105532;-79
2022/07/02 05:52:20;;;;;;;11.23;6.00;;;;;;;24.88;50.92;100713.16;123659;1099;104338;-79
2022/07/02 05:54:51;;;;;;;10.77;6.00;;;;;;;24.95;50.61;100711.25;123748;1099;104286;-79
2022/07/02 05:57:23;;;;;;;12.50;6.07;;;;;;;25.01;50.69;100708.44;123662;1097;104319;-79
2022/07/02 05:59:55;;;;;;;11.10;6.13;;;;;;;25.08;50.38;100706.50;123630;1099;104300;-80
2022/07/02 06:02:27;;;;;;;10.50;5.65;;;;;;;25.16;50.68;100706.34;123695;1096;104338;-79
2022/07/02 06:04:58;;;;;;;16.80;6.20;;;;;;;25.23;50.14;100706.17;124065;1098;104271;-80
2022/07/02 06:07:43;;;;;;;15.70;6.03;;;;;;;25.32;50.45;100715.84;124141;1099;104274;-80
2022/07/02 06:10:18;;;;;;;9.33;5.73;;;;;;;25.40;49.82;100713.89;123968;1099;104290;-80
2022/07/02 06:12:52;;;;;;;15.63;5.90;;;;;;;25.47;49.91;100718.19;124002;1097;104354;-79
2022/07/02 06:15:23;;;;;;;14.57;6.57;;;;;;;25.53;49.51;100719.00;123562;1099;104379;-78
2022/07/02 06:17:55;;;;;;;17.77;6.40;;;;;;;25.58;50.00;100720.64;123539;1099;104367;-80
2022/07/02 06:20:26;;;;;;;10.73;5.47;;;;;;;25.63;49.09;100718.75;123588;1099;104310;-80
2022/07/02 06:22:57;;;;;;;13.93;5.67;;;;;;;25.70;48.95;100727.55;123514;1099;104293;-80
2022/07/02 06:25:29;;;;;;;8.83;5.23;;;;;;;25.76;49.00;100727.40;123766;1098;104364;-79
2022/07/02 06:28:01;;;;;;;15.07;5.73;;;;;;;25.87;49.14;100713.70;123791;1098;104365;-79
2022/07/02 06:30:32;;;;;;;11.40;5.70;;;;;;;25.97;49.13;100722.42;123624;1097;104363;-79
2022/07/02 06:33:04;;;;;;;14.07;5.50;;;;;;;26.06;48.57;100718.66;123505;1099;104237;-79
2022/07/02 06:35:35;;;;;;;13.87;6.27;;;;;;;26.13;48.72;100715.78;123633;1097;104303;-78
2022/07/02 06:38:07;;;;;;;11.80;5.90;;;;;;;26.20;48.28;100713.81;123524;1099;104403;-78
2022/07/02 06:40:38;;;;;;;11.03;5.77;;;;;;;26.26;48.44;100713.66;123806;1096;104338;-78
2022/07/02 06:43:10;;;;;;;8.87;5.83;;;;;;;26.31;48.50;100711.72;123576;1099;104399;-79
2022/07/02 06:45:41;;;;;;;12.00;6.13;;;;;;;26.36;47.79;100716.98;123499;1099;104339;-79
2022/07/02 06:48:13;;;;;;;12.00;5.83;;;;;;;26.43;47.90;100706.92;123475;1099;104377;-79
2022/07/02 06:50:44;;;;;;;13.40;5.73;;;;;;;26.51;47.91;100710.31;123579;1099;104238;-78
2022/07/02 06:53:16;;;;;;;10.93;5.50;;;;;;;26.61;47.45;100713.62;123610;1099;104402;-79
2022/07/02 06:55:47;;;;;;;11.20;5.47;;;;;;;26.69;47.57;100708.94;123536;1099;104265;-79
2022/07/02 06:58:19;;;;;;;14.20;5.67;;;;;;;26.82;47.14;100707.69;123824;1099;104245;-80
2022/07/02 07:00:50;;;;;;;11.27;5.87;;;;;;;26.95;47.22;100710.03;124228;1099;104321;-78
2022/07/02 07:03:22;;;;;;;11.23;5.93;;;;;;;27.03;46.55;100708.85;123626;1099;104639;-80
2022/07/02 07:05:53;;;;;;;17.23;5.87;;;;;;;27.14;46.81;100711.23;123563;1099;104315;-80
2022/07/02 07:08:25;;;;;;;13.83;5.27;;;;;;;27.25;46.54;100714.51;123579;1098;104318;-80
2022/07/02 07:10:57;;;;;;;12.43;5.17;;;;;;;27.36;46.14;100722.30;123670;1097;104974;-79
2022/07/02 07:13:28;;;;;;;8.10;5.00;;;;;;;27.48;46.02;100718.33;123491;1099;104337;-80
2022/07/02 07:16:00;;;;;;;10.07;5.10;;;;;;;27.64;46.31;100726.80;123508;1096;104313;-80
2022/07/02 07:18:32;;;;;;;10.03;5.13;;;;;;;27.78;45.78;100720.97;123476;1099;104331;-80
2022/07/02 07:21:03;;;;;;;11.40;5.40;;;;;;;27.95;45.74;100726.72;123521;1096;104293;-79
2022/07/02 07:23:35;;;;;;;9.20;5.45;;;;;;;28.13;45.45;100729.77;123589;1095;104262;-79
2022/07/02 07:26:06;;;;;;;12.10;5.43;;;;;;;28.29;45.24;100736.38;123508;1099;104312;-79
2022/07/02 07:28:38;;;;;;;7.03;4.97;;;;;;;28.43;44.70;100735.04;123685;1096;104252;-79
2022/07/02 07:31:09;;;;;;;9.27;5.63;;;;;;;28.61;44.80;100731.72;124219;1096;104268;-79
2022/07/02 07:33:41;;;;;;;12.30;5.20;;;;;;;28.77;43.81;100725.77;123835;1099;104310;-79
2022/07/02 07:36:12;;;;;;;11.33;5.07;;;;;;;28.96;44.31;100734.94;123991;1099;104714;-79
2022/07/02 07:38:44;;;;;;;9.95;5.05;;;;;;;29.20;43.48;100727.78;123966;1099;104338;-80
2022/07/02 07:41:15;;;;;;;7.40;4.60;;;;;;;29.47;42.97;100726.77;123941;1098;104409;-78
2022/07/02 07:43:47;;;;;;;7.60;4.60;;;;;;;29.78;42.62;100736.33;123634;1099;104245;-77
2022/07/02 07:46:19;;;;;;;12.07;5.63;;;;;;;30.01;41.80;100738.13;123616;1099;104336;-79
2022/07/02 07:48:51;;;;;;;8.03;4.50;;;;;;;30.14;40.92;100741.19;123704;1099;104340;-79
2022/07/02 07:51:23;;;;;;;8.97;4.83;;;;;;;30.31;41.18;100741.38;123556;1099;104223;-79
2022/07/02 07:53:54;;;;;;;10.77;4.70;;;;;;;30.42;40.89;100747.23;123899;1099;104444;-78
2022/07/02 07:56:26;;;;;;;7.63;4.40;;;;;;;30.57;39.90;100742.09;123595;1099;104274;-81
2022/07/02 07:58:57;;;;;;;10.27;5.03;;;;;;;30.69;39.41;100749.67;123552;1098;104351;-80
2022/07/02 08:01:28;;;;;;;6.00;4.20;;;;;;;30.82;39.40;100733.74;123496;1099;104444;-79
2022/07/02 08:04:00;;;;;;;7.20;4.50;;;;;;;30.95;39.19;100744.92;123572;1099;104334;-78
2022/07/02 08:06:34;;;;;;;8.47;4.30;;;;;;;31.18;38.53;100747.48;123721;1099;104332;-77
2022/07/02 08:09:05;;;;;;;10.73;4.70;;;;;;;31.43;37.82;100748.14;123672;1099;104296;-79
2022/07/02 08:11:37;;;;;;;10.70;4.50;;;;;;;31.58;38.25;100749.29;123493;1099;104344;-79
2022/07/02 08:14:08;;;;;;;9.37;4.30;;;;;;;31.64;37.91;100751.70;123919;1099;104280;-78
2022/07/02 08:16:40;;;;;;;9.10;4.63;;;;;;;31.75;37.19;100741.20;123851;1099;104268;-79
2022/07/02 08:19:11;;;;;;;7.75;4.20;;;;;;;31.86;37.13;100755.11;123542;1099;104338;-79
2022/07/02 08:21:43;;;;;;;6.03;4.20;;;;;;;31.97;36.93;100760.00;123614;1099;104238;-80
2022/07/02 08:24:14;;;;;;;7.17;4.50;;;;;;;32.07;36.64;100749.59;123532;1099;104192;-79
2022/07/02 08:26:45;;;;;;;8.17;4.50;;;;;;;32.10;36.14;100754.91;124074;1099;104341;-79
2022/07/02 08:29:17;;;;;;;9.47;4.47;;;;;;;32.15;36.42;100758.25;123571;1099;104377;-79
2022/07/02 08:31:48;;;;;;;9.80;4.40;;;;;;;32.26;36.07;100749.56;124006;1097;104741;-78
2022/07/02 08:34:20;;;;;;;6.60;4.60;;;;;;;32.33;36.09;100752.83;124178;1099;104498;-78
2022/07/02 08:36:51;;;;;;;6.47;4.07;;;;;;;32.28;35.04;100758.50;124215;1099;104338;-79
2022/07/02 08:39:22;;;;;;;5.33;4.37;;;;;;;32.31;34.86;100762.91;123937;1099;104476;-78
2022/07/02 08:41:57;;;;;;;7.20;4.03;;;;;;;32.32;34.71;100764.64;124069;1099;104220;-79
2022/07/02 08:44:29;;;;;;;8.47;4.47;;;;;;;32.39;34.71;100763.38;123844;1099;104408;-79
2022/07/02 08:47:04;;;;;;;6.95;4.50;;;;;;;32.53;34.72;100762.66;123765;1098;104214;-80
2022/07/02 08:49:36;;;;;;;12.00;4.27;;;;;;;32.68;34.37;100766.43;123642;1098;104309;-80
2022/07/02 08:52:09;;;;;;;7.35;4.30;;;;;;;32.82;34.26;100765.70;124281;1096;104233;-79
2022/07/02 08:54:41;;;;;;;9.60;4.43;;;;;;;32.98;34.07;100760.34;124122;1096;104238;-79
2022/07/02 08:57:14;;;;;;;5.87;4.13;;;;;;;33.00;33.77;100772.00;124246;1099;104210;-78
2022/07/02 08:59:46;;;;;;;8.37;4.40;;;;;;;32.90;33.58;100764.34;123716;1099;104329;-78
2022/07/02 09:02:20;;;;;;;5.30;3.93;;;;;;;32.90;33.26;100745.32;123863;1099;104336;-79
2022/07/02 09:04:52;;;;;;;5.83;3.90;;;;;;;32.99;33.88;100753.93;124276;1098;102824;-80
2022/07/02 09:07:25;;;;;;;10.97;4.20;;;;;;;33.11;33.25;100758.70;124084;1099;104299;-80
2022/07/02 09:09:58;;;;;;;8.93;4.40;;;;;;;33.08;32.53;100758.86;124366;1099;104217;-80
2022/07/02 09:12:31;;;;;;;8.73;4.57;;;;;;;33.23;32.84;100762.63;123975;1099;104204;-80
2022/07/02 09:15:03;;;;;;;9.25;4.22;;;;;;;33.29;32.51;100751.42;123706;1099;104316;-79
2022/07/02 09:17:34;;;;;;;6.73;3.90;;;;;;;33.29;32.11;100752.28;123881;1097;104237;-78
2022/07/02 09:20:08;;;;;;;9.67;4.00;;;;;;;33.19;31.44;100756.46;124350;1099;104322;-78
2022/07/02 09:22:41;;;;;;;8.90;3.97;;;;;;;33.14;31.87;100758.53;124174;1099;104419;-81
2022/07/02 09:25:15;;;;;;;6.90;3.60;;;;;;;33.17;31.69;100752.06;123818;1099;104329;-79
2022/07/02 09:27:49;;;;;;;8.47;3.87;;;;;;;33.06;31.09;100758.08;124077;1099;104328;-78
2022/07/02 09:30:21;;;;;;;9.93;4.30;;;;;;;32.90;31.02;100753.47;123886;1099;104239;-80
2022/07/02 09:33:28;;;;;;;7.03;3.63;;;;;;;32.94;30.85;100748.74;123902;1099;104233;-78
2022/07/02 09:35:45;;;;;;;8.33;3.90;;;;;;;33.03;30.79;100755.53;123616;1099;106990;-80
2022/07/02 09:38:17;;;;;;;9.40;3.80;;;;;;;33.08;30.66;100762.48;124093;1099;104278;-80
2022/07/02 09:40:55;;;;;;;7.90;3.87;;;;;;;33.16;30.45;100764.78;124349;1096;104290;-79
2022/07/02 09:43:32;;;;;;;7.13;3.97;;;;;;;33.13;30.16;100773.97;123772;1099;104290;-80
2022/07/02 09:46:14;;;;;;;6.75;3.80;;;;;;;33.12;30.25;100772.20;123756;1099;118767;-77
2022/07/02 09:48:46;;;;;;;5.60;3.90;;;;;;;32.97;30.25;100762.16;123682;1099;104744;-78
2022/07/02 09:51:18;;;;;;;10.67;3.93;;;;;;;33.04;30.09;100758.16;123593;1099;104236;-79
2022/07/02 09:53:57;;;;;;;6.83;3.83;;;;;;;32.96;30.22;100761.30;123758;1099;104342;-80
2022/07/02 09:56:28;;;;;;;4.83;3.70;;;;;;;32.87;29.60;100761.79;123786;1098;104236;-78
2022/07/02 09:59:00;;;;;;;5.43;3.60;;;;;;;33.00;30.06;100750.27;123732;1098;104243;-79
2022/07/02 10:01:31;;;;;;;7.50;3.60;;;;;;;33.21;30.09;100762.72;124027;1099;104367;-78
2022/07/02 10:04:03;;;;;;;7.03;3.87;;;;;;;33.39;29.70;100752.64;123680;1099;104259;-79
2022/07/02 10:06:35;;;;;;;9.90;3.70;;;;;;;33.58;29.20;100741.63;124004;1099;111628;-79
2022/07/02 10:09:07;;;;;;;7.13;3.60;;;;;;;33.61;29.22;100738.73;124004;1099;104309;-79
2022/07/02 10:11:39;;;;;;;7.20;3.90;;;;;;;33.60;28.87;100746.98;123807;1099;104328;-79
2022/07/02 10:14:15;;;;;;;7.80;3.70;;;;;;;33.74;28.86;100744.37;123648;1098;104274;-79
2022/07/02 10:16:48;;;;;;;7.70;3.90;;;;;;;33.99;28.84;100746.53;123590;1099;104338;-79
2022/07/02 10:19:21;;;;;;;5.08;3.80;;;;;;;34.07;28.69;100737.05;124212;1099;104203;-77
2022/07/02 10:21:53;;;;;;;6.57;3.90;;;;;;;34.01;28.74;100743.72;123691;1099;104319;-77
2022/07/02 10:24:25;;;;;;;5.57;3.73;;;;;;;33.85;28.97;100741.02;123728;1099;104347;-78
2022/07/02 10:27:00;;;;;;;4.83;3.50;;;;;;;33.72;28.87;100738.11;123792;1099;104658;-78
2022/07/02 10:29:31;;;;;;;7.93;3.90;;;;;;;33.37;28.71;100743.70;124082;1099;104208;-77
2022/07/02 10:32:14;;;;;;;4.65;3.70;;;;;;;33.06;28.72;100744.49;124213;1099;104705;-80
2022/07/02 10:35:01;;;;;;;7.40;3.83;;;;;;;32.84;28.79;100753.80;124019;1099;104258;-78
2022/07/02 10:37:37;;;;;;;5.77;3.60;;;;;;;32.82;28.68;100743.97;124493;1099;118934;-78
2022/07/02 10:40:11;;;;;;;4.93;3.80;;;;;;;32.92;28.82;100737.09;123783;1097;104258;-79
2022/07/02 10:42:44;;;;;;;5.60;3.83;;;;;;;33.09;28.83;100744.33;124427;1099;104232;-79
2022/07/02 10:45:18;;;;;;;4.20;3.80;;;;;;;33.27;28.63;100747.88;124379;1099;104335;-80
2022/07/02 10:48:01;;;;;;;5.70;3.57;;;;;;;33.59;28.41;100753.38;124334;1098;104261;-80
2022/07/02 10:50:45;;;;;;;5.75;3.65;;;;;;;33.83;27.94;100740.22;124060;1099;104256;-80
2022/07/02 10:53:21;;;;;;;5.57;3.43;;;;;;;34.02;27.57;100732.73;123882;1099;104399;-79
2022/07/02 10:56:03;;;;;;;7.85;3.80;;;;;;;33.97;27.89;100737.59;124318;1099;104262;-79
2022/07/02 10:58:35;;;;;;;7.87;4.23;;;;;;;33.97;27.86;100733.97;124065;1097;104357;-80
2022/07/02 11:01:14;;;;;;;4.90;3.92;;;;;;;33.83;28.02;100726.61;124278;1099;104261;-78
2022/07/02 11:03:58;;;;;;;7.90;3.80;;;;;;;33.58;28.13;100736.19;124067;1099;104844;-78
2022/07/02 11:06:31;;;;;;;6.10;3.93;;;;;;;33.25;28.42;100738.94;124336;1099;104363;-78
2022/07/02 11:09:02;;;;;;;;;;;;;;;32.92;28.43;100739.80;124313;1098;104245;-79
2022/07/02 11:11:57;;;;;;;7.13;3.70;;;;;;;32.83;28.29;100735.73;123985;1096;104281;-79
2022/07/02 11:14:31;;;;;;;9.67;4.67;;;;;;;32.74;28.50;100749.81;124398;1099;104300;-77
2022/07/02 11:17:03;;;;;;;5.40;3.83;;;;;;;32.74;29.10;100744.38;124136;1099;104290;-79
2022/07/02 11:19:34;;;;;;;6.90;3.80;;;;;;;32.85;28.59;100725.68;123557;1099;104293;-80
2022/07/02 11:22:06;;;;;;;4.97;3.87;;;;;;;33.01;28.72;100720.28;124259;1099;104236;-79
2022/07/02 11:24:38;;;;;;;6.00;4.00;;;;;;;33.26;28.84;100718.95;123584;1099;104345;-79
2022/07/02 11:27:09;;;;;;;7.23;3.87;;;;;;;33.54;28.60;100715.55;123529;1098;104239;-80
2022/07/02 11:29:41;;;;;;;7.83;3.90;;;;;;;33.74;28.74;100724.42;123885;1099;104287;-79
2022/07/02 11:32:12;;;;;;;6.20;3.63;;;;;;;33.70;28.48;100723.70;123721;1099;104386;-79